sensor_id;sensor_type;location;lat;lon;timestamp;pressure;altitude;pressure_sealevel;temperature;humidity
66090;BME280;53113;45.602;11.904;2022-11-30T00:00:20;101614.95;;;2.74;65.87
66090;BME280;53113;45.602;11.904;2022-11-30T00:02:46;101614.96;;;2.74;66.05
66090;BME280;53113;45.602;11.904;2022-11-30T00:05:14;101616.50;;;2.75;66.17
66090;BME280;53113;45.602;11.904;2022-11-30T00:07:45;101615.13;;;2.80;66.24
66090;BME280;53113;45.602;11.904;2022-11-30T00:10:11;101614.59;;;2.86;66.32
66090;BME280;53113;45.602;11.904;2022-11-30T00:12:37;101611.80;;;2.92;66.35
66090;BME280;53113;45.602;11.904;2022-11-30T00:15:08;101611.67;;;2.97;66.51
66090;BME280;53113;45.602;11.904;2022-11-30T00:17:36;101611.75;;;3.00;66.58
66090;BME280;53113;45.602;11.904;2022-11-30T00:20:03;101609.90;;;3.04;66.69
66090;BME280;53113;45.602;11.904;2022-11-30T00:22:28;101609.29;;;3.06;66.83
66090;BME280;53113;45.602;11.904;2022-11-30T00:24:54;101606.42;;;3.08;66.96
66090;BME280;53113;45.602;11.904;2022-11-30T00:27:20;101609.84;;;3.11;67.00
66090;BME280;53113;45.602;11.904;2022-11-30T00:29:45;101610.46;;;3.14;67.18
66090;BME280;53113;45.602;11.904;2022-11-30T00:32:11;101604.63;;;3.15;67.32
66090;BME280;53113;45.602;11.904;2022-11-30T00:34:36;101602.11;;;3.18;67.54
66090;BME280;53113;45.602;11.904;2022-11-30T00:37:02;101599.42;;;3.20;67.65
66090;BME280;53113;45.602;11.904;2022-11-30T00:39:27;101598.60;;;3.24;67.68
66090;BME280;53113;45.602;11.904;2022-11-30T00:41:53;101598.92;;;3.30;67.75
66090;BME280;53113;45.602;11.904;2022-11-30T00:44:18;101596.02;;;3.39;67.82
66090;BME280;53113;45.602;11.904;2022-11-30T00:46:45;101601.67;;;3.49;67.79
66090;BME280;53113;45.602;11.904;2022-11-30T00:49:11;101599.83;;;3.57;67.83
66090;BME280;53113;45.602;11.904;2022-11-30T00:51:36;101599.46;;;3.62;67.90
66090;BME280;53113;45.602;11.904;2022-11-30T00:54:03;101599.86;;;3.66;67.87
66090;BME280;53113;45.602;11.904;2022-11-30T00:56:29;101600.95;;;3.71;67.96
66090;BME280;53113;45.602;11.904;2022-11-30T00:58:54;101603.30;;;3.73;67.84
66090;BME280;53113;45.602;11.904;2022-11-30T01:01:20;101599.70;;;3.77;67.82
66090;BME280;53113;45.602;11.904;2022-11-30T01:03:45;101601.20;;;3.78;67.76
66090;BME280;53113;45.602;11.904;2022-11-30T01:06:11;101595.16;;;3.81;67.63
66090;BME280;53113;45.602;11.904;2022-11-30T01:08:37;101594.41;;;3.82;67.56
66090;BME280;53113;45.602;11.904;2022-11-30T01:11:15;101597.67;;;3.85;67.49
66090;BME280;53113;45.602;11.904;2022-11-30T01:13:41;101595.02;;;3.85;67.46
66090;BME280;53113;45.602;11.904;2022-11-30T01:16:09;101597.98;;;3.86;67.28
66090;BME280;53113;45.602;11.904;2022-11-30T01:18:36;101595.92;;;3.85;67.19
66090;BME280;53113;45.602;11.904;2022-11-30T01:21:11;101595.40;;;3.85;67.24
66090;BME280;53113;45.602;11.904;2022-11-30T01:23:39;101594.00;;;3.84;67.22
66090;BME280;53113;45.602;11.904;2022-11-30T01:26:05;101597.69;;;3.84;67.13
66090;BME280;53113;45.602;11.904;2022-11-30T01:28:31;101600.30;;;3.84;67.16
66090;BME280;53113;45.602;11.904;2022-11-30T01:31:03;101592.83;;;3.88;67.23
66090;BME280;53113;45.602;11.904;2022-11-30T01:33:29;101597.32;;;3.95;67.18
66090;BME280;53113;45.602;11.904;2022-11-30T01:36:05;101590.88;;;4.04;67.18
66090;BME280;53113;45.602;11.904;2022-11-30T01:38:34;101589.36;;;4.13;67.07
66090;BME280;53113;45.602;11.904;2022-11-30T01:41:02;101589.42;;;4.20;67.10
66090;BME280;53113;45.602;11.904;2022-11-30T01:43:50;101595.57;;;4.25;66.98
66090;BME280;53113;45.602;11.904;2022-11-30T01:48:46;101599.91;;;4.31;66.82
66090;BME280;53113;45.602;11.904;2022-11-30T01:51:16;101603.39;;;4.32;66.77
66090;BME280;53113;45.602;11.904;2022-11-30T01:53:42;101603.20;;;4.32;66.63
66090;BME280;53113;45.602;11.904;2022-11-30T01:56:08;101603.58;;;4.32;66.58
66090;BME280;53113;45.602;11.904;2022-11-30T01:58:34;101598.17;;;4.31;66.47
66090;BME280;53113;45.602;11.904;2022-11-30T02:01:01;101596.80;;;4.30;66.49
66090;BME280;53113;45.602;11.904;2022-11-30T02:03:42;101596.31;;;4.29;66.43
66090;BME280;53113;45.602;11.904;2022-11-30T02:06:11;101597.44;;;4.27;66.46
66090;BME280;53113;45.602;11.904;2022-11-30T02:08:37;101594.71;;;4.24;66.45
66090;BME280;53113;45.602;11.904;2022-11-30T02:11:05;101594.98;;;4.21;66.46
66090;BME280;53113;45.602;11.904;2022-11-30T02:14:00;101595.06;;;4.19;66.47
66090;BME280;53113;45.602;11.904;2022-11-30T02:30:20;101580.63;;;4.06;66.73
66090;BME280;53113;45.602;11.904;2022-11-30T02:33:02;101579.77;;;4.11;66.62
66090;BME280;53113;45.602;11.904;2022-11-30T02:35:32;101578.41;;;4.14;66.66
66090;BME280;53113;45.602;11.904;2022-11-30T02:38:00;101579.29;;;4.15;66.56
66090;BME280;53113;45.602;11.904;2022-11-30T02:40:27;101577.19;;;4.15;66.46
66090;BME280;53113;45.602;11.904;2022-11-30T02:42:57;101574.04;;;4.14;66.49
66090;BME280;53113;45.602;11.904;2022-11-30T02:46:36;101574.98;;;4.13;66.60
66090;BME280;53113;45.602;11.904;2022-11-30T02:49:02;101569.84;;;4.09;66.44
66090;BME280;53113;45.602;11.904;2022-11-30T02:51:31;101571.73;;;4.06;66.47
66090;BME280;53113;45.602;11.904;2022-11-30T02:54:00;101572.17;;;4.02;66.37
66090;BME280;53113;45.602;11.904;2022-11-30T02:56:25;101573.39;;;3.98;66.32
66090;BME280;53113;45.602;11.904;2022-11-30T02:58:53;101576.50;;;3.94;66.28
66090;BME280;53113;45.602;11.904;2022-11-30T03:01:20;101573.54;;;3.89;66.09
66090;BME280;53113;45.602;11.904;2022-11-30T03:03:46;101575.98;;;3.83;66.12
66090;BME280;53113;45.602;11.904;2022-11-30T03:06:12;101575.48;;;3.78;65.91
66090;BME280;53113;45.602;11.904;2022-11-30T03:08:38;101571.98;;;3.72;66.01
66090;BME280;53113;45.602;11.904;2022-11-30T03:11:04;101571.48;;;3.67;65.89
66090;BME280;53113;45.602;11.904;2022-11-30T03:13:32;101572.20;;;3.61;65.96
66090;BME280;53113;45.602;11.904;2022-11-30T03:15:57;101570.80;;;3.55;65.89
66090;BME280;53113;45.602;11.904;2022-11-30T03:18:31;101575.39;;;3.49;65.92
66090;BME280;53113;45.602;11.904;2022-11-30T03:20:57;101570.75;;;3.47;65.97
66090;BME280;53113;45.602;11.904;2022-11-30T03:23:25;101575.77;;;3.48;65.87
66090;BME280;53113;45.602;11.904;2022-11-30T03:25:56;101577.45;;;3.50;65.97
66090;BME280;53113;45.602;11.904;2022-11-30T03:28:23;101574.77;;;3.51;65.94
66090;BME280;53113;45.602;11.904;2022-11-30T03:30:49;101577.94;;;3.51;66.15
66090;BME280;53113;45.602;11.904;2022-11-30T03:33:15;101574.84;;;3.49;66.32
66090;BME280;53113;45.602;11.904;2022-11-30T03:35:43;101571.23;;;3.48;66.49
66090;BME280;53113;45.602;11.904;2022-11-30T03:38:09;101580.35;;;3.47;66.70
66090;BME280;53113;45.602;11.904;2022-11-30T03:40:38;101582.33;;;3.46;66.65
66090;BME280;53113;45.602;11.904;2022-11-30T03:43:03;101572.41;;;3.44;66.84
66090;BME280;53113;45.602;11.904;2022-11-30T03:45:29;101571.91;;;3.43;66.89
66090;BME280;53113;45.602;11.904;2022-11-30T03:47:57;101577.56;;;3.42;67.13
66090;BME280;53113;45.602;11.904;2022-11-30T03:50:25;101573.40;;;3.40;67.24
66090;BME280;53113;45.602;11.904;2022-11-30T03:52:51;101574.00;;;3.38;67.19
66090;BME280;53113;45.602;11.904;2022-11-30T03:55:17;101571.73;;;3.37;67.35
66090;BME280;53113;45.602;11.904;2022-11-30T03:57:43;101574.06;;;3.35;67.29
66090;BME280;53113;45.602;11.904;2022-11-30T04:00:09;101577.98;;;3.33;67.32
66090;BME280;53113;45.602;11.904;2022-11-30T04:02:35;101578.88;;;3.33;67.36
66090;BME280;53113;45.602;11.904;2022-11-30T04:05:01;101572.84;;;3.36;67.40
66090;BME280;53113;45.602;11.904;2022-11-30T04:07:27;101577.76;;;3.40;67.27
66090;BME280;53113;45.602;11.904;2022-11-30T04:09:53;101577.50;;;3.43;67.13
66090;BME280;53113;45.602;11.904;2022-11-30T04:12:18;101577.63;;;3.45;67.16
66090;BME280;53113;45.602;11.904;2022-11-30T04:14:44;101578.19;;;3.44;67.12
66090;BME280;53113;45.602;11.904;2022-11-30T04:17:10;101584.20;;;3.42;67.06
66090;BME280;53113;45.602;11.904;2022-11-30T04:19:36;101582.52;;;3.39;67.19
66090;BME280;53113;45.602;11.904;2022-11-30T04:22:01;101587.88;;;3.36;67.23
66090;BME280;53113;45.602;11.904;2022-11-30T04:24:27;101590.23;;;3.33;67.30
66090;BME280;53113;45.602;11.904;2022-11-30T04:26:53;101585.98;;;3.30;67.11
66090;BME280;53113;45.602;11.904;2022-11-30T04:29:19;101582.06;;;3.26;67.07
66090;BME280;53113;45.602;11.904;2022-11-30T04:31:45;101580.80;;;3.22;67.00
66090;BME280;53113;45.602;11.904;2022-11-30T04:34:11;101576.25;;;3.16;66.92
66090;BME280;53113;45.602;11.904;2022-11-30T04:36:37;101574.82;;;3.11;67.12
66090;BME280;53113;45.602;11.904;2022-11-30T04:39:02;101580.61;;;3.06;67.07
66090;BME280;53113;45.602;11.904;2022-11-30T04:41:28;101585.13;;;3.01;67.19
66090;BME280;53113;45.602;11.904;2022-11-30T04:43:54;101589.27;;;2.96;67.22
66090;BME280;53113;45.602;11.904;2022-11-30T04:46:20;101591.15;;;2.92;67.11
66090;BME280;53113;45.602;11.904;2022-11-30T04:48:45;101593.34;;;2.89;67.14
66090;BME280;53113;45.602;11.904;2022-11-30T04:51:11;101592.45;;;2.90;67.11
66090;BME280;53113;45.602;11.904;2022-11-30T04:53:37;101592.71;;;2.93;66.95
66090;BME280;53113;45.602;11.904;2022-11-30T04:56:05;101590.92;;;2.94;66.88
66090;BME280;53113;45.602;11.904;2022-11-30T04:58:31;101586.07;;;2.93;66.93
66090;BME280;53113;45.602;11.904;2022-11-30T05:00:57;101587.70;;;2.91;67.01
66090;BME280;53113;45.602;11.904;2022-11-30T05:03:22;101590.06;;;2.88;66.93
66090;BME280;53113;45.602;11.904;2022-11-30T05:05:48;101586.48;;;2.85;66.98
66090;BME280;53113;45.602;11.904;2022-11-30T05:08:13;101585.38;;;2.81;67.08
66090;BME280;53113;45.602;11.904;2022-11-30T05:10:39;101589.20;;;2.76;67.11
66090;BME280;53113;45.602;11.904;2022-11-30T05:13:05;101584.59;;;2.72;67.21
66090;BME280;53113;45.602;11.904;2022-11-30T05:15:31;101581.38;;;2.68;67.33
66090;BME280;53113;45.602;11.904;2022-11-30T05:17:58;101588.84;;;2.65;67.34
66090;BME280;53113;45.602;11.904;2022-11-30T05:20:24;101593.48;;;2.61;67.40
66090;BME280;53113;45.602;11.904;2022-11-30T05:22:50;101593.62;;;2.56;67.25
66090;BME280;53113;45.602;11.904;2022-11-30T05:25:16;101591.82;;;2.52;67.25
66090;BME280;53113;45.602;11.904;2022-11-30T05:27:42;101595.60;;;2.48;67.32
66090;BME280;53113;45.602;11.904;2022-11-30T05:30:09;101594.35;;;2.43;67.30
66090;BME280;53113;45.602;11.904;2022-11-30T05:32:35;101606.27;;;2.41;67.35
66090;BME280;53113;45.602;11.904;2022-11-30T05:35:01;101610.23;;;2.44;67.32
66090;BME280;53113;45.602;11.904;2022-11-30T05:37:27;101613.13;;;2.46;67.27
66090;BME280;53113;45.602;11.904;2022-11-30T05:39:53;101617.60;;;2.49;67.23
66090;BME280;53113;45.602;11.904;2022-11-30T05:42:19;101618.64;;;2.49;67.23
66090;BME280;53113;45.602;11.904;2022-11-30T05:44:44;101619.52;;;2.49;67.40
66090;BME280;53113;45.602;11.904;2022-11-30T05:47:12;101619.88;;;2.48;67.50
66090;BME280;53113;45.602;11.904;2022-11-30T05:49:37;101619.72;;;2.48;67.48
66090;BME280;53113;45.602;11.904;2022-11-30T05:52:04;101613.30;;;2.46;67.61
66090;BME280;53113;45.602;11.904;2022-11-30T05:54:29;101618.04;;;2.45;67.59
66090;BME280;53113;45.602;11.904;2022-11-30T05:56:55;101620.20;;;2.44;67.68
66090;BME280;53113;45.602;11.904;2022-11-30T05:59:21;101623.54;;;2.43;67.81
66090;BME280;53113;45.602;11.904;2022-11-30T06:01:47;101627.45;;;2.40;67.94
66090;BME280;53113;45.602;11.904;2022-11-30T06:04:14;101633.77;;;2.40;67.96
66090;BME280;53113;45.602;11.904;2022-11-30T06:06:39;101634.84;;;2.39;68.18
66090;BME280;53113;45.602;11.904;2022-11-30T06:09:05;101634.35;;;2.38;68.23
66090;BME280;53113;45.602;11.904;2022-11-30T06:11:31;101632.40;;;2.38;68.20
66090;BME280;53113;45.602;11.904;2022-11-30T06:13:56;101635.95;;;2.43;68.31
66090;BME280;53113;45.602;11.904;2022-11-30T06:16:22;101638.75;;;2.49;68.29
66090;BME280;53113;45.602;11.904;2022-11-30T06:18:47;101633.01;;;2.54;68.27
66090;BME280;53113;45.602;11.904;2022-11-30T06:21:13;101633.61;;;2.58;68.18
66090;BME280;53113;45.602;11.904;2022-11-30T06:23:39;101635.66;;;2.60;68.24
66090;BME280;53113;45.602;11.904;2022-11-30T06:26:06;101640.70;;;2.61;68.26
66090;BME280;53113;45.602;11.904;2022-11-30T06:28:33;101639.47;;;2.61;68.25
66090;BME280;53113;45.602;11.904;2022-11-30T06:31:00;101638.44;;;2.60;68.15
66090;BME280;53113;45.602;11.904;2022-11-30T06:33:26;101639.68;;;2.60;68.25
66090;BME280;53113;45.602;11.904;2022-11-30T06:35:53;101639.35;;;2.59;68.34
66090;BME280;53113;45.602;11.904;2022-11-30T06:38:19;101643.62;;;2.57;68.36
66090;BME280;53113;45.602;11.904;2022-11-30T06:40:46;101648.02;;;2.55;68.33
66090;BME280;53113;45.602;11.904;2022-11-30T06:43:12;101651.74;;;2.53;68.28
66090;BME280;53113;45.602;11.904;2022-11-30T06:45:42;101662.79;;;2.52;68.25
66090;BME280;53113;45.602;11.904;2022-11-30T06:48:07;101663.55;;;2.49;68.23
66090;BME280;53113;45.602;11.904;2022-11-30T06:50:33;101663.91;;;2.49;68.20
66090;BME280;53113;45.602;11.904;2022-11-30T06:52:59;101672.41;;;2.51;68.23
66090;BME280;53113;45.602;11.904;2022-11-30T06:55:24;101673.36;;;2.55;68.10
66090;BME280;53113;45.602;11.904;2022-11-30T06:57:50;101669.91;;;2.60;68.12
66090;BME280;53113;45.602;11.904;2022-11-30T07:00:16;101666.84;;;2.64;68.18
66090;BME280;53113;45.602;11.904;2022-11-30T07:02:42;101670.63;;;2.66;68.21
66090;BME280;53113;45.602;11.904;2022-11-30T07:05:08;101673.74;;;2.67;68.39
66090;BME280;53113;45.602;11.904;2022-11-30T07:07:34;101676.71;;;2.67;68.50
66090;BME280;53113;45.602;11.904;2022-11-30T07:10:00;101677.23;;;2.67;68.59
66090;BME280;53113;45.602;11.904;2022-11-30T07:12:26;101674.08;;;2.67;68.68
66090;BME280;53113;45.602;11.904;2022-11-30T07:14:52;101672.19;;;2.66;68.78
66090;BME280;53113;45.602;11.904;2022-11-30T07:17:21;101673.95;;;2.66;68.79
66090;BME280;53113;45.602;11.904;2022-11-30T07:19:47;101669.77;;;2.66;68.93
66090;BME280;53113;45.602;11.904;2022-11-30T07:22:13;101665.95;;;2.64;68.94
66090;BME280;53113;45.602;11.904;2022-11-30T07:24:39;101671.54;;;2.64;69.06
66090;BME280;53113;45.602;11.904;2022-11-30T07:27:23;101668.92;;;2.64;69.20
66090;BME280;53113;45.602;11.904;2022-11-30T07:29:49;101671.20;;;2.64;69.43
66090;BME280;53113;45.602;11.904;2022-11-30T07:32:18;101668.70;;;2.66;69.44
66090;BME280;53113;45.602;11.904;2022-11-30T07:34:43;101667.31;;;2.72;69.57
66090;BME280;53113;45.602;11.904;2022-11-30T07:37:10;101668.30;;;2.80;69.63
66090;BME280;53113;45.602;11.904;2022-11-30T07:39:36;101667.16;;;2.89;69.64
66090;BME280;53113;45.602;11.904;2022-11-30T07:42:02;101671.45;;;2.98;69.68
66090;BME280;53113;45.602;11.904;2022-11-30T07:44:28;101678.40;;;3.06;69.79
66090;BME280;53113;45.602;11.904;2022-11-30T07:46:54;101679.59;;;3.13;69.90
66090;BME280;53113;45.602;11.904;2022-11-30T07:49:20;101679.22;;;3.20;70.01
66090;BME280;53113;45.602;11.904;2022-11-30T07:51:45;101681.18;;;3.25;70.23
66090;BME280;53113;45.602;11.904;2022-11-30T07:54:11;101677.14;;;3.31;70.37
66090;BME280;53113;45.602;11.904;2022-11-30T07:56:37;101682.02;;;3.37;70.48
66090;BME280;53113;45.602;11.904;2022-11-30T07:59:03;101685.83;;;3.45;70.52
66090;BME280;53113;45.602;11.904;2022-11-30T08:01:31;101686.31;;;3.51;70.60
66090;BME280;53113;45.602;11.904;2022-11-30T08:03:58;101692.37;;;3.59;70.73
66090;BME280;53113;45.602;11.904;2022-11-30T08:06:26;101693.35;;;3.67;70.71
66090;BME280;53113;45.602;11.904;2022-11-30T08:09:00;101694.85;;;3.75;70.79
66090;BME280;53113;45.602;11.904;2022-11-30T08:11:29;101688.54;;;3.86;70.81
66090;BME280;53113;45.602;11.904;2022-11-30T08:13:56;101689.70;;;3.99;70.79
66090;BME280;53113;45.602;11.904;2022-11-30T08:16:24;101690.05;;;4.15;70.79
66090;BME280;53113;45.602;11.904;2022-11-30T08:18:51;101694.56;;;4.32;70.70
66090;BME280;53113;45.602;11.904;2022-11-30T08:21:19;101697.89;;;4.47;70.78
66090;BME280;53113;45.602;11.904;2022-11-30T08:23:48;101694.06;;;4.61;70.77
66090;BME280;53113;45.602;11.904;2022-11-30T08:26:19;101690.07;;;4.75;70.80
66090;BME280;53113;45.602;11.904;2022-11-30T08:28:47;101695.20;;;4.89;70.79
66090;BME280;53113;45.602;11.904;2022-11-30T08:31:22;101692.08;;;5.02;70.81
66090;BME280;53113;45.602;11.904;2022-11-30T08:33:48;101692.67;;;5.19;70.94
66090;BME280;53113;45.602;11.904;2022-11-30T08:36:17;101694.18;;;5.34;71.08
66090;BME280;53113;45.602;11.904;2022-11-30T08:38:44;101697.45;;;5.54;71.22
66090;BME280;53113;45.602;11.904;2022-11-30T08:41:12;101695.87;;;5.76;71.32
66090;BME280;53113;45.602;11.904;2022-11-30T08:43:39;101696.05;;;6.03;71.45
66090;BME280;53113;45.602;11.904;2022-11-30T08:46:10;101696.64;;;6.31;71.21
66090;BME280;53113;45.602;11.904;2022-11-30T08:48:36;101694.42;;;6.62;71.15
66090;BME280;53113;45.602;11.904;2022-11-30T08:51:05;101693.95;;;6.92;70.73
66090;BME280;53113;45.602;11.904;2022-11-30T08:53:32;101688.81;;;7.20;70.11
66090;BME280;53113;45.602;11.904;2022-11-30T08:56:04;101693.29;;;7.45;69.55
66090;BME280;53113;45.602;11.904;2022-11-30T08:58:32;101689.05;;;7.67;68.80
66090;BME280;53113;45.602;11.904;2022-11-30T09:01:22;101689.80;;;7.88;68.27
66090;BME280;53113;45.602;11.904;2022-11-30T09:03:50;101691.13;;;8.11;67.67
66090;BME280;53113;45.602;11.904;2022-11-30T09:06:25;101686.58;;;8.32;67.22
66090;BME280;53113;45.602;11.904;2022-11-30T09:08:52;101683.88;;;8.54;66.88
66090;BME280;53113;45.602;11.904;2022-11-30T09:11:25;101684.05;;;8.77;66.58
66090;BME280;53113;45.602;11.904;2022-11-30T09:13:55;101685.93;;;9.05;66.23
66090;BME280;53113;45.602;11.904;2022-11-30T09:16:23;101684.73;;;9.37;65.91
66090;BME280;53113;45.602;11.904;2022-11-30T09:18:50;101683.93;;;9.70;65.42
66090;BME280;53113;45.602;11.904;2022-11-30T09:21:19;101678.02;;;10.05;65.04
66090;BME280;53113;45.602;11.904;2022-11-30T09:23:46;101674.55;;;10.43;64.34
66090;BME280;53113;45.602;11.904;2022-11-30T09:26:15;101675.79;;;10.81;63.62
66090;BME280;53113;45.602;11.904;2022-11-30T09:28:42;101675.05;;;11.21;62.95
66090;BME280;53113;45.602;11.904;2022-11-30T09:31:17;101679.02;;;11.62;61.76
66090;BME280;53113;45.602;11.904;2022-11-30T09:33:45;101676.74;;;11.94;60.35
66090;BME280;53113;45.602;11.904;2022-11-30T09:36:14;101678.45;;;12.19;58.84
66090;BME280;53113;45.602;11.904;2022-11-30T09:38:40;101679.14;;;12.40;57.88
66090;BME280;53113;45.602;11.904;2022-11-30T09:51:45;101661.95;;;13.34;53.68
66090;BME280;53113;45.602;11.904;2022-11-30T09:54:27;101659.97;;;13.34;52.96
66090;BME280;53113;45.602;11.904;2022-11-30T09:59:47;101659.18;;;13.22;52.34
66090;BME280;53113;45.602;11.904;2022-11-30T10:02:17;101660.19;;;13.13;51.95
66090;BME280;53113;45.602;11.904;2022-11-30T10:04:43;101657.73;;;13.05;51.65
66090;BME280;53113;45.602;11.904;2022-11-30T10:07:42;101654.34;;;13.01;51.63
66090;BME280;53113;45.602;11.904;2022-11-30T10:10:38;101653.22;;;12.99;51.44
66090;BME280;53113;45.602;11.904;2022-11-30T10:24:18;101633.15;;;13.16;49.84
66090;BME280;53113;45.602;11.904;2022-11-30T10:26:56;101628.48;;;13.27;49.23
66090;BME280;53113;45.602;11.904;2022-11-30T10:29:30;101629.23;;;13.41;49.39
66090;BME280;53113;45.602;11.904;2022-11-30T10:31:58;101624.27;;;13.58;49.10
66090;BME280;53113;45.602;11.904;2022-11-30T10:34:52;101623.33;;;13.75;48.72
66090;BME280;53113;45.602;11.904;2022-11-30T10:37:25;101621.50;;;13.94;48.38
66090;BME280;53113;45.602;11.904;2022-11-30T10:40:12;101617.74;;;14.11;48.25
66090;BME280;53113;45.602;11.904;2022-11-30T10:42:54;101617.70;;;14.33;47.90
66090;BME280;53113;45.602;11.904;2022-11-30T10:45:26;101613.77;;;14.56;47.17
66090;BME280;53113;45.602;11.904;2022-11-30T10:48:11;101612.84;;;14.79;46.26
66090;BME280;53113;45.602;11.904;2022-11-30T10:50:40;101616.42;;;15.04;45.90
66090;BME280;53113;45.602;11.904;2022-11-30T10:53:09;101609.06;;;15.26;45.18
66090;BME280;53113;45.602;11.904;2022-11-30T10:55:48;101608.11;;;15.47;44.62
66090;BME280;53113;45.602;11.904;2022-11-30T10:58:35;101607.70;;;15.69;44.48
66090;BME280;53113;45.602;11.904;2022-11-30T11:01:10;101602.91;;;15.94;44.21
66090;BME280;53113;45.602;11.904;2022-11-30T11:09:32;101601.67;;;16.61;41.58
66090;BME280;53113;45.602;11.904;2022-11-30T11:12:20;101599.95;;;16.80;41.39
66090;BME280;53113;45.602;11.904;2022-11-30T11:17:32;101584.29;;;17.28;40.37
66090;BME280;53113;45.602;11.904;2022-11-30T11:19:58;101584.51;;;17.45;39.61
66090;BME280;53113;45.602;11.904;2022-11-30T11:22:26;101579.14;;;17.59;39.37
66090;BME280;53113;45.602;11.904;2022-11-30T11:25:35;101578.91;;;17.69;38.99
66090;BME280;53113;45.602;11.904;2022-11-30T11:28:13;101585.65;;;17.77;38.56
66090;BME280;53113;45.602;11.904;2022-11-30T11:30:41;101587.12;;;17.85;38.69
66090;BME280;53113;45.602;11.904;2022-11-30T11:35:45;101579.50;;;18.11;38.12
66090;BME280;53113;45.602;11.904;2022-11-30T11:40:54;101579.22;;;18.44;37.52
66090;BME280;53113;45.602;11.904;2022-11-30T11:43:23;101579.73;;;18.52;37.19
66090;BME280;53113;45.602;11.904;2022-11-30T11:45:53;101569.64;;;18.56;37.10
66090;BME280;53113;45.602;11.904;2022-11-30T11:48:37;101561.11;;;18.57;36.51
66090;BME280;53113;45.602;11.904;2022-11-30T11:51:09;101563.59;;;18.52;35.95
66090;BME280;53113;45.602;11.904;2022-11-30T11:56:31;101562.08;;;18.37;35.96
66090;BME280;53113;45.602;11.904;2022-11-30T11:59:13;101565.40;;;18.23;35.59
66090;BME280;53113;45.602;11.904;2022-11-30T12:01:57;101563.81;;;18.06;35.68
66090;BME280;53113;45.602;11.904;2022-11-30T12:04:43;101561.02;;;17.90;35.60
66090;BME280;53113;45.602;11.904;2022-11-30T12:10:14;101548.88;;;17.62;35.41
66090;BME280;53113;45.602;11.904;2022-11-30T12:12:46;101546.77;;;17.51;35.51
66090;BME280;53113;45.602;11.904;2022-11-30T12:15:12;101544.13;;;17.42;35.61
66090;BME280;53113;45.602;11.904;2022-11-30T12:20:27;101546.91;;;17.17;35.45
66090;BME280;53113;45.602;11.904;2022-11-30T12:26:17;101543.61;;;16.80;34.88
66090;BME280;53113;45.602;11.904;2022-11-30T12:32:09;101535.94;;;16.39;35.05
66090;BME280;53113;45.602;11.904;2022-11-30T12:35:12;101533.21;;;16.22;35.25
66090;BME280;53113;45.602;11.904;2022-11-30T12:46:01;101524.05;;;15.72;36.16
66090;BME280;53113;45.602;11.904;2022-11-30T12:48:49;101521.46;;;15.69;36.27
66090;BME280;53113;45.602;11.904;2022-11-30T12:51:28;101518.70;;;15.65;36.39
66090;BME280;53113;45.602;11.904;2022-11-30T12:56:53;101513.85;;;15.62;36.27
66090;BME280;53113;45.602;11.904;2022-11-30T13:02:14;101512.11;;;15.53;36.74
66090;BME280;53113;45.602;11.904;2022-11-30T13:05:10;101511.09;;;15.46;36.83
66090;BME280;53113;45.602;11.904;2022-11-30T13:12:36;101512.13;;;15.18;36.57
66090;BME280;53113;45.602;11.904;2022-11-30T13:15:16;101512.02;;;15.06;36.54
66090;BME280;53113;45.602;11.904;2022-11-30T13:17:44;101507.97;;;14.95;36.65
66090;BME280;53113;45.602;11.904;2022-11-30T13:20:27;101500.79;;;14.85;36.71
66090;BME280;53113;45.602;11.904;2022-11-30T13:28:54;101507.23;;;14.56;37.05
66090;BME280;53113;45.602;11.904;2022-11-30T13:31:47;101509.55;;;14.47;37.46
66090;BME280;53113;45.602;11.904;2022-11-30T13:34:28;101512.36;;;14.38;37.90
66090;BME280;53113;45.602;11.904;2022-11-30T13:39:43;101505.05;;;14.22;38.66
66090;BME280;53113;45.602;11.904;2022-11-30T13:42:31;101503.96;;;14.16;38.94
66090;BME280;53113;45.602;11.904;2022-11-30T13:47:54;101502.35;;;14.02;38.77
66090;BME280;53113;45.602;11.904;2022-11-30T13:50:37;101505.33;;;13.96;38.75
66090;BME280;53113;45.602;11.904;2022-11-30T13:55:48;101499.39;;;13.85;38.84
66090;BME280;53113;45.602;11.904;2022-11-30T13:58:16;101498.83;;;13.81;38.95
66090;BME280;53113;45.602;11.904;2022-11-30T14:00:45;101501.91;;;13.78;39.12
66090;BME280;53113;45.602;11.904;2022-11-30T14:05:56;101498.84;;;13.72;39.40
66090;BME280;53113;45.602;11.904;2022-11-30T14:10:50;101505.86;;;13.66;39.65
66090;BME280;53113;45.602;11.904;2022-11-30T14:18:20;101504.05;;;13.57;39.90
66090;BME280;53113;45.602;11.904;2022-11-30T14:23:28;101499.52;;;13.51;39.82
66090;BME280;53113;45.602;11.904;2022-11-30T14:26:07;101498.56;;;13.47;39.84
66090;BME280;53113;45.602;11.904;2022-11-30T14:31:14;101506.46;;;13.41;39.93
66090;BME280;53113;45.602;11.904;2022-11-30T14:33:48;101504.46;;;13.37;40.05
66090;BME280;53113;45.602;11.904;2022-11-30T14:36:17;101506.55;;;13.33;40.40
66090;BME280;53113;45.602;11.904;2022-11-30T14:38:44;101506.61;;;13.30;41.02
66090;BME280;53113;45.602;11.904;2022-11-30T14:41:25;101507.23;;;13.27;41.40
66090;BME280;53113;45.602;11.904;2022-11-30T14:44:12;101504.92;;;13.24;41.43
66090;BME280;53113;45.602;11.904;2022-11-30T14:46:39;101505.98;;;13.19;41.80
66090;BME280;53113;45.602;11.904;2022-11-30T14:51:49;101501.53;;;13.12;42.22
66090;BME280;53113;45.602;11.904;2022-11-30T14:56:52;101505.01;;;13.03;42.13
66090;BME280;53113;45.602;11.904;2022-11-30T15:02:17;101508.56;;;12.93;42.13
66090;BME280;53113;45.602;11.904;2022-11-30T15:04:43;101508.05;;;12.88;42.49
66090;BME280;53113;45.602;11.904;2022-11-30T15:07:13;101506.69;;;12.83;42.85